Domov               UVHVVR             MKGP            O straneh              
ZDRAVSTVENO VARSTVO RASTLIN
  MREŽA AGROMET. POSTAJ
 ► PROGNOSTIČNA OBVESTILA
AGROMETEOROLOŠKI PODATKI -
ARSO
OBVLADOVANJE TVEGANJ ZARADI
NEUGODNIH VREMENSKIH RAZMER
  ► NARAVNE NESREČE
  ► SUŠA/MOČA
  ► NAMAKANJE
  ► ŽLED (gozdarstvo)
KARTOGRAFSKI PRIKAZI
SPLETNE POVEZAVE
PROJEKTI IN PUBLIKACIJE

AGROMETEOROLOŠKA MREŽA: VREMENSKE POSTAJE IN FENOLOŠKA OPAZOVANJA

Pregled podatkov za lokacijo Potoče, meteorološka postaja 861648

Pregled senzorjev na lokaciji

ID Ime Zadnja
vrednost
Datum
zadnje
spremembe
Tip
senzorja
4070 Temperatura 2 m ( °C) 25,05 °C 19.8.2017 20:00 50YA
4071 Relativna vlaga 2 m (% RH) 62,23 % RH 19.8.2017 20:00 50YA
4072 Omočenost lista (U) 0 U 19.8.2017 20:00 A730WET
4073 Padavine 0.2 mm (mm) 0 mm 19.8.2017 20:00 Rain-O-Matic

Pregled podatkov zadnjih 24 ur

Zap.
št.
Datum in čas Potoče
Omočenost
lista
Padavine
0.2
mm
Relativna
vlaga
2
m
Temperatura
2
m
0 19.8.2017 19:00 0 0 62,23 25,05
1 19.8.2017 18:30 0 0 63,62 24,99
2 19.8.2017 18:00 0 0 64,13 25,09
3 19.8.2017 17:30 0 0 63,73 25,64
4 19.8.2017 17:00 0 0 62,82 26,38
5 19.8.2017 16:30 0 0 59,39 27,95
6 19.8.2017 16:00 0 0 62,83 27,11
7 19.8.2017 15:30 0 0 58,48 27,41
8 19.8.2017 15:00 0 0 57,3 28,71
9 19.8.2017 14:30 0 0 58,4 28,27
10 19.8.2017 14:00 4 0 69,76 26,64
11 19.8.2017 13:30 10 0 76,1 24,85
12 19.8.2017 13:00 10 0 79,22 24,25
13 19.8.2017 12:30 10 0 82,87 23,87
14 19.8.2017 12:00 10 0,6 91,14 22,15
15 19.8.2017 11:30 10 0,2 86,62 22,51
16 19.8.2017 11:00 3 0,2 73,38 25,58
17 19.8.2017 10:30 0 0 59,33 29,84
18 19.8.2017 10:00 0 0 56,17 30,21
19 19.8.2017 09:30 0 0 62,22 28,89
20 19.8.2017 09:00 0 0 59,55 28,36
21 19.8.2017 08:30 0 0 66,34 26,58
22 19.8.2017 08:00 0 0 68,91 24,7
23 19.8.2017 07:30 0 0 76 22,47
24 19.8.2017 07:00 0 0 93,49 19,45
25 19.8.2017 06:30 0 0 97,98 16,8
26 19.8.2017 06:00 0 0 97,99 15,88
27 19.8.2017 05:30 0 0 97,49 14,99
28 19.8.2017 05:00 0 0 97,07 14,79
29 19.8.2017 04:30 0 0 97 14,96
30 19.8.2017 04:00 0 0 97,04 15,19
31 19.8.2017 03:30 0 0 97,3 15,65
32 19.8.2017 03:00 0 0 97,23 15,76
33 19.8.2017 02:30 0 0 96,78 15,48
34 19.8.2017 02:00 0 0 96,39 15,5
35 19.8.2017 01:30 0 0 95,6 15,39
36 19.8.2017 01:00 0 0 95,34 15,55
37 19.8.2017 00:30 0 0 94,63 15,77
38 19.8.2017 00:00 0 0 94,23 16,07
39 18.8.2017 23:30 0 0 94,08 16,48
40 18.8.2017 23:00 0 0 93,03 16,78
41 18.8.2017 22:30 1 0 92,73 17,32
42 18.8.2017 22:00 1 0 91,5 17,85
43 18.8.2017 21:30 0 0 89,04 18,41
44 18.8.2017 21:00 0 0 87,26 19,3
© 2011 Ministrstvo za kmetijstvo, gozdarstvo in prehrano. Vse pravice pridržane.